createdAt,value
2019-06-26T00:01:26.464Z,17.50
2019-06-26T00:03:56.488Z,17.60
2019-06-26T00:06:28.365Z,17.66
2019-06-26T00:08:57.150Z,17.61
2019-06-26T00:11:28.673Z,17.63
2019-06-26T00:13:57.385Z,17.63
2019-06-26T00:16:29.074Z,17.60
2019-06-26T00:18:57.798Z,17.55
2019-06-26T00:21:27.960Z,17.52
2019-06-26T00:23:56.636Z,17.51
2019-06-26T00:26:28.090Z,17.52
2019-06-26T00:29:04.456Z,17.57
2019-06-26T00:31:33.444Z,17.59
2019-06-26T00:34:04.141Z,17.60
2019-06-26T00:36:33.515Z,17.60
2019-06-26T00:39:03.579Z,17.61
2019-06-26T00:41:49.710Z,17.59
2019-06-26T00:44:19.786Z,17.60
2019-06-26T00:46:55.058Z,17.60
2019-06-26T00:49:28.455Z,17.61
2019-06-26T00:51:57.931Z,17.62
2019-06-26T00:54:28.251Z,17.62
2019-06-26T00:56:57.513Z,17.58
2019-06-26T00:59:26.987Z,17.57
2019-06-26T01:01:55.858Z,17.58
2019-06-26T01:04:26.211Z,17.58
2019-06-26T01:06:54.864Z,17.59
2019-06-26T01:09:25.233Z,17.61
2019-06-26T01:11:57.321Z,17.59
2019-06-26T01:14:25.948Z,17.52
2019-06-26T01:16:54.823Z,17.49
2019-06-26T01:19:23.536Z,17.45
2019-06-26T01:21:54.416Z,17.42
2019-06-26T01:24:26.054Z,17.41
2019-06-26T01:26:55.379Z,17.37
2019-06-26T01:29:25.437Z,17.32
2019-06-26T01:31:57.167Z,17.26
2019-06-26T01:34:29.493Z,17.19
2019-06-26T01:36:58.151Z,17.19
2019-06-26T01:39:29.038Z,17.24
2019-06-26T01:41:58.172Z,17.25
2019-06-26T01:44:26.952Z,17.23
2019-06-26T01:46:56.782Z,17.19
2019-06-26T01:49:28.702Z,17.18
2019-06-26T01:52:02.218Z,17.14
2019-06-26T01:54:34.004Z,17.12
2019-06-26T01:57:04.387Z,17.14
2019-06-26T01:59:35.887Z,17.13
2019-06-26T02:02:05.639Z,17.12
2019-06-26T02:04:34.219Z,17.12
2019-06-26T02:07:03.300Z,17.12
2019-06-26T02:09:33.797Z,17.16
2019-06-26T02:12:03.498Z,17.20
2019-06-26T02:14:38.065Z,17.19
2019-06-26T02:17:09.782Z,17.17
2019-06-26T02:19:38.466Z,17.13
2019-06-26T02:22:16.029Z,17.12
2019-06-26T02:24:49.415Z,17.07
2019-06-26T02:27:20.280Z,17.04
2019-06-26T02:29:48.951Z,17.03
2019-06-26T02:32:22.186Z,16.97
2019-06-26T02:35:11.789Z,16.95
2019-06-26T02:37:40.512Z,16.97
2019-06-26T02:40:09.901Z,16.98
2019-06-26T02:42:41.239Z,16.92
2019-06-26T02:45:10.755Z,16.87
2019-06-26T02:47:42.349Z,16.84
2019-06-26T02:50:19.234Z,16.83
2019-06-26T02:52:47.869Z,16.79
2019-06-26T02:55:16.552Z,16.80
2019-06-26T02:57:49.814Z,16.85
2019-06-26T03:00:18.579Z,16.90
2019-06-26T03:02:49.988Z,16.94
2019-06-26T03:05:18.677Z,16.96
2019-06-26T03:07:49.818Z,16.98
2019-06-26T03:10:22.387Z,16.98
2019-06-26T03:12:52.484Z,16.98
2019-06-26T03:15:21.235Z,16.98
2019-06-26T03:17:55.712Z,16.95
2019-06-26T03:20:24.857Z,16.94
2019-06-26T03:22:57.067Z,16.91
2019-06-26T03:25:25.643Z,16.94
2019-06-26T03:27:55.759Z,16.96
2019-06-26T03:30:24.563Z,16.98
2019-06-26T03:32:53.220Z,16.99
2019-06-26T03:35:23.290Z,16.95
2019-06-26T03:37:52.019Z,16.84
2019-06-26T03:40:20.790Z,16.76
2019-06-26T03:42:49.421Z,16.70
2019-06-26T03:45:26.198Z,16.69
2019-06-26T03:47:51.651Z,16.67
2019-06-26T03:50:20.348Z,16.62
2019-06-26T03:52:51.257Z,16.51
2019-06-26T03:55:21.234Z,16.44
2019-06-26T03:57:50.680Z,16.44
2019-06-26T04:00:38.822Z,16.44
2019-06-26T04:03:12.999Z,16.45
2019-06-26T04:05:46.860Z,16.46
2019-06-26T04:08:18.680Z,16.49
2019-06-26T04:10:48.045Z,16.55
2019-06-26T04:13:18.295Z,16.59
2019-06-26T04:15:51.071Z,16.62
2019-06-26T04:18:20.931Z,16.66
2019-06-26T04:20:50.438Z,16.71
2019-06-26T04:23:22.221Z,16.78
2019-06-26T04:25:53.712Z,16.85
2019-06-26T04:28:22.721Z,16.93
2019-06-26T04:30:51.423Z,16.99
2019-06-26T04:33:20.053Z,16.99
2019-06-26T04:35:48.722Z,16.97
2019-06-26T04:38:17.444Z,16.98
2019-06-26T04:40:46.124Z,17.02
2019-06-26T04:43:14.762Z,17.09
2019-06-26T04:45:57.109Z,17.17
2019-06-26T04:48:13.713Z,17.23
2019-06-26T04:50:42.570Z,17.30
2019-06-26T04:53:11.224Z,17.35
2019-06-26T04:55:39.847Z,17.39
2019-06-26T04:58:08.514Z,17.39
2019-06-26T05:00:37.225Z,17.43
2019-06-26T05:03:05.988Z,17.47
2019-06-26T05:05:39.728Z,17.55
2019-06-26T05:08:05.105Z,17.59
2019-06-26T05:10:33.679Z,17.65
2019-06-26T05:13:02.328Z,17.68
2019-06-26T05:15:31.020Z,17.72
2019-06-26T05:17:59.793Z,17.77
2019-06-26T05:20:31.465Z,17.80
2019-06-26T05:23:00.108Z,17.81
2019-06-26T05:25:28.788Z,17.81
2019-06-26T05:27:57.529Z,17.84
2019-06-26T05:30:26.142Z,17.86
2019-06-26T05:32:54.799Z,17.87
2019-06-26T05:35:23.520Z,17.91
2019-06-26T05:37:52.217Z,17.95
2019-06-26T05:40:20.957Z,17.96
2019-06-26T05:46:31.087Z,18.00
2019-06-26T05:48:52.091Z,18.11
2019-06-26T05:51:20.857Z,18.23
2019-06-26T05:53:49.484Z,18.42
2019-06-26T05:56:18.145Z,18.84
2019-06-26T05:58:46.954Z,19.59
2019-06-26T06:01:15.840Z,20.41
2019-06-26T06:03:44.517Z,21.17
2019-06-26T06:06:13.162Z,21.68
2019-06-26T06:08:42.355Z,22.12
2019-06-26T06:11:11.049Z,22.49
2019-06-26T06:13:39.780Z,22.65
2019-06-26T06:16:08.409Z,22.64
2019-06-26T06:18:37.119Z,22.55
2019-06-26T06:21:05.870Z,22.28
2019-06-26T06:23:34.666Z,22.23
2019-06-26T06:26:03.461Z,22.49
2019-06-26T06:28:32.105Z,22.78
2019-06-26T06:31:00.890Z,23.09
2019-06-26T06:33:29.631Z,23.28
2019-06-26T06:35:58.332Z,23.38
2019-06-26T06:38:34.139Z,23.41
2019-06-26T06:41:02.869Z,23.51
2019-06-26T06:43:31.624Z,23.58
2019-06-26T06:46:00.254Z,23.33
2019-06-26T06:48:31.774Z,22.85
2019-06-26T06:51:00.461Z,22.37
2019-06-26T06:53:28.989Z,21.89
2019-06-26T06:55:57.648Z,21.51
2019-06-26T06:58:29.966Z,21.20
2019-06-26T07:00:56.736Z,21.03
2019-06-26T07:03:25.423Z,20.99
2019-06-26T07:05:54.116Z,20.95
2019-06-26T07:08:22.796Z,20.74
2019-06-26T07:10:51.478Z,20.52
2019-06-26T07:13:20.145Z,20.31
2019-06-26T07:15:48.845Z,20.20
2019-06-26T07:18:17.501Z,20.12
2019-06-26T07:20:46.141Z,20.24
2019-06-26T07:23:15.256Z,20.35
2019-06-26T07:25:43.974Z,20.48
2019-06-26T07:28:12.802Z,20.59
2019-06-26T07:30:41.548Z,20.74
2019-06-26T07:33:10.230Z,20.87
2019-06-26T07:35:39.005Z,20.99
2019-06-26T07:38:07.843Z,21.27
2019-06-26T07:40:36.584Z,21.53
2019-06-26T07:43:06.111Z,21.90
2019-06-26T07:45:34.680Z,22.22
2019-06-26T07:48:03.478Z,22.20
2019-06-26T07:50:32.758Z,22.07
2019-06-26T07:53:04.618Z,21.80
2019-06-26T07:55:33.566Z,21.60
2019-06-26T07:58:02.204Z,21.48
2019-06-26T08:00:31.839Z,21.71
2019-06-26T08:03:04.106Z,21.72
2019-06-26T08:05:31.181Z,21.55
2019-06-26T08:08:00.292Z,21.32
2019-06-26T08:10:29.244Z,21.04
2019-06-26T08:12:58.414Z,20.76
2019-06-26T08:15:30.617Z,20.62
2019-06-26T08:18:03.445Z,20.58
2019-06-26T08:20:51.583Z,20.58
2019-06-26T08:23:15.347Z,20.71
2019-06-26T08:25:44.291Z,20.83
2019-06-26T08:28:13.324Z,20.78
2019-06-26T08:30:42.090Z,20.76
2019-06-26T08:33:22.647Z,20.80
2019-06-26T08:35:52.689Z,20.96
2019-06-26T08:38:24.349Z,21.18
2019-06-26T08:40:53.251Z,21.47
2019-06-26T08:43:25.274Z,21.87
2019-06-26T08:45:54.186Z,22.11
2019-06-26T08:48:38.994Z,22.23
2019-06-26T08:50:54.887Z,22.26
2019-06-26T08:53:23.746Z,22.30
2019-06-26T08:55:52.756Z,22.28
2019-06-26T08:58:22.028Z,22.42
2019-06-26T09:00:50.987Z,22.50
2019-06-26T09:03:19.832Z,22.45
2019-06-26T09:05:48.922Z,22.33
2019-06-26T09:08:18.903Z,22.16
2019-06-26T09:10:47.881Z,22.04
2019-06-26T09:13:16.809Z,21.94
2019-06-26T09:15:49.933Z,21.77
2019-06-26T09:18:34.334Z,21.59
2019-06-26T09:20:49.892Z,21.50
2019-06-26T09:23:19.552Z,21.45
2019-06-26T09:25:48.627Z,21.54
2019-06-26T09:28:18.131Z,21.62
2019-06-26T09:30:46.956Z,21.69
2019-06-26T09:33:16.339Z,21.69
2019-06-26T09:35:45.282Z,21.70
2019-06-26T09:38:15.897Z,21.75
2019-06-26T09:40:44.739Z,21.84
2019-06-26T09:43:13.776Z,21.91
2019-06-26T09:45:44.606Z,21.95
2019-06-26T09:48:13.501Z,22.02
2019-06-26T09:50:42.551Z,22.05
2019-06-26T09:53:11.776Z,22.07
2019-06-26T09:55:40.805Z,22.01
2019-06-26T09:58:12.994Z,21.93
2019-06-26T10:00:40.338Z,21.86
2019-06-26T10:03:09.326Z,21.83
2019-06-26T10:05:38.433Z,21.83
2019-06-26T10:08:07.354Z,21.85
2019-06-26T10:10:36.787Z,21.79
2019-06-26T10:13:05.658Z,21.72
2019-06-26T10:15:34.473Z,21.67
2019-06-26T10:18:03.246Z,21.63
2019-06-26T10:20:32.069Z,21.64
2019-06-26T10:23:00.906Z,21.75
2019-06-26T10:25:29.822Z,21.93
2019-06-26T10:28:00.392Z,22.05
2019-06-26T10:30:29.435Z,22.04
2019-06-26T10:32:58.276Z,21.95
2019-06-26T10:35:28.818Z,21.92
2019-06-26T10:37:57.754Z,21.89
2019-06-26T10:40:27.780Z,21.93
2019-06-26T10:42:59.492Z,21.97
2019-06-26T10:45:29.294Z,22.01
2019-06-26T10:47:58.299Z,22.00
2019-06-26T10:50:27.290Z,21.98
2019-06-26T10:52:56.086Z,21.96
2019-06-26T10:55:25.158Z,22.05
2019-06-26T10:57:54.239Z,22.09
2019-06-26T11:00:24.131Z,22.10
2019-06-26T11:02:53.070Z,22.11
2019-06-26T11:05:22.000Z,22.18
2019-06-26T11:07:51.006Z,22.23
2019-06-26T11:10:20.699Z,22.23
2019-06-26T11:12:49.621Z,22.29
2019-06-26T11:15:19.318Z,22.42
2019-06-26T11:17:49.721Z,22.55
2019-06-26T11:20:18.923Z,22.65
2019-06-26T11:22:51.869Z,22.72
2019-06-26T11:25:21.565Z,22.83
2019-06-26T11:27:53.003Z,22.96
2019-06-26T11:30:26.153Z,22.99
2019-06-26T11:32:54.956Z,22.95
2019-06-26T11:35:23.748Z,22.93
2019-06-26T11:37:52.663Z,22.94
2019-06-26T11:40:21.527Z,22.95
2019-06-26T11:42:50.237Z,22.88
2019-06-26T11:45:19.911Z,22.80
2019-06-26T11:47:50.385Z,22.80
2019-06-26T11:50:19.438Z,22.80
2019-06-26T11:52:48.333Z,22.69
2019-06-26T11:55:17.664Z,22.63
2019-06-26T11:57:46.483Z,22.62
2019-06-26T12:00:21.184Z,22.62
2019-06-26T12:02:50.119Z,22.69
2019-06-26T12:05:20.691Z,22.81
2019-06-26T12:07:49.849Z,22.91
2019-06-26T12:10:19.094Z,22.92
2019-06-26T12:12:48.044Z,22.98
2019-06-26T12:15:18.070Z,22.97
2019-06-26T12:17:46.929Z,22.96
2019-06-26T12:20:19.647Z,22.94
2019-06-26T12:22:47.901Z,22.95
2019-06-26T12:25:16.760Z,22.92
2019-06-26T12:27:45.596Z,22.93
2019-06-26T12:30:16.178Z,22.87
2019-06-26T12:33:01.527Z,22.83
2019-06-26T12:35:15.768Z,22.77
2019-06-26T12:37:46.121Z,22.81
2019-06-26T12:40:16.353Z,22.91
2019-06-26T12:42:45.213Z,22.95
2019-06-26T12:45:14.428Z,22.99
2019-06-26T12:47:43.436Z,22.88
2019-06-26T12:50:13.634Z,22.81
2019-06-26T12:52:42.439Z,22.78
2019-06-26T12:55:11.944Z,22.83
2019-06-26T12:57:41.849Z,22.78
2019-06-26T13:00:13.035Z,22.77
2019-06-26T13:02:44.471Z,22.73
2019-06-26T13:05:13.558Z,22.60
2019-06-26T13:07:42.554Z,22.47
2019-06-26T13:10:11.972Z,22.43
2019-06-26T13:12:41.190Z,22.38
2019-06-26T13:15:19.643Z,22.29
2019-06-26T13:18:01.347Z,22.19
2019-06-26T13:20:31.672Z,22.21
2019-06-26T13:23:01.709Z,22.22
2019-06-26T13:25:39.599Z,22.30
2019-06-26T13:28:09.580Z,22.40
2019-06-26T13:30:42.653Z,22.37
2019-06-26T13:33:21.899Z,22.23
2019-06-26T13:35:54.316Z,22.14
2019-06-26T13:38:36.134Z,22.13
2019-06-26T13:41:06.761Z,22.12
2019-06-26T13:43:44.524Z,22.00
2019-06-26T13:46:14.454Z,21.92
2019-06-26T13:48:50.127Z,21.91
2019-06-26T13:51:26.542Z,21.88
2019-06-26T13:53:57.114Z,21.85
2019-06-26T13:56:27.002Z,21.96
2019-06-26T13:59:01.262Z,22.12
2019-06-26T14:01:32.011Z,22.17
2019-06-26T14:04:01.687Z,22.14
2019-06-26T14:06:32.384Z,22.11
2019-06-26T14:09:01.707Z,22.12
2019-06-26T14:11:31.730Z,22.17
2019-06-26T14:14:03.155Z,22.17
2019-06-26T14:16:34.749Z,22.25
2019-06-26T14:19:04.041Z,22.32
2019-06-26T14:21:33.773Z,22.40
2019-06-26T14:24:06.900Z,22.50
2019-06-26T14:26:37.065Z,22.62
2019-06-26T14:29:20.890Z,22.73
2019-06-26T14:31:42.643Z,22.71
2019-06-26T14:34:11.593Z,22.67
2019-06-26T14:36:40.389Z,22.68
2019-06-26T14:39:09.268Z,22.66
2019-06-26T14:41:39.309Z,22.56
2019-06-26T14:44:08.383Z,22.50
2019-06-26T14:46:37.317Z,22.47
2019-06-26T14:49:07.706Z,22.47
2019-06-26T14:51:45.505Z,22.51
2019-06-26T14:54:07.436Z,22.58
2019-06-26T14:56:40.122Z,22.65
2019-06-26T14:59:12.586Z,22.72
2019-06-26T15:01:41.985Z,22.77
2019-06-26T15:08:17.565Z,22.73
2019-06-26T15:10:50.126Z,22.64
2019-06-26T15:13:19.373Z,22.56
2019-06-26T15:15:48.779Z,22.49
2019-06-26T15:18:17.472Z,22.49
2019-06-26T15:20:46.852Z,22.50
2019-06-26T15:23:15.514Z,22.56
2019-06-26T15:25:46.521Z,22.57
2019-06-26T15:28:15.247Z,22.49
2019-06-26T15:30:44.334Z,22.43
2019-06-26T15:33:13.601Z,22.38
2019-06-26T15:35:42.414Z,22.33
2019-06-26T15:38:11.285Z,22.25
2019-06-26T15:40:40.106Z,22.25
2019-06-26T15:43:09.068Z,22.26
2019-06-26T15:45:39.805Z,22.31
2019-06-26T15:48:08.716Z,22.33
2019-06-26T15:50:37.686Z,22.35
2019-06-26T15:53:06.561Z,22.30
2019-06-26T15:55:35.791Z,22.24
2019-06-26T15:58:07.736Z,22.22
2019-06-26T16:00:36.730Z,22.23
2019-06-26T16:03:05.664Z,22.24
2019-06-26T16:05:34.890Z,22.21
2019-06-26T16:08:05.059Z,22.19
2019-06-26T16:10:34.650Z,22.15
2019-06-26T16:13:03.677Z,22.09
2019-06-26T16:15:32.862Z,22.02
2019-06-26T16:18:10.539Z,22.05
2019-06-26T16:20:39.189Z,22.08
2019-06-26T16:23:07.917Z,22.14
2019-06-26T16:25:37.527Z,22.15
2019-06-26T16:28:07.745Z,22.18
2019-06-26T16:30:36.614Z,22.18
2019-06-26T16:33:05.532Z,22.16
2019-06-26T16:35:34.113Z,22.18
2019-06-26T16:38:04.904Z,22.18
2019-06-26T16:40:33.576Z,22.17
2019-06-26T16:43:02.123Z,22.09
2019-06-26T16:45:30.703Z,22.01
2019-06-26T16:47:59.380Z,21.93
2019-06-26T16:50:28.043Z,21.90
2019-06-26T16:52:56.538Z,21.90
2019-06-26T16:55:26.715Z,21.86
2019-06-26T16:57:56.059Z,21.78
2019-06-26T17:00:24.850Z,21.75
2019-06-26T17:02:53.492Z,21.69
2019-06-26T17:05:22.186Z,21.64
2019-06-26T17:07:50.815Z,21.64
2019-06-26T17:10:19.706Z,21.69
2019-06-26T17:12:48.411Z,21.71
2019-06-26T17:15:18.242Z,21.69
2019-06-26T17:17:46.966Z,21.67
2019-06-26T17:20:16.002Z,21.65
2019-06-26T17:22:44.635Z,21.56
2019-06-26T17:25:15.535Z,21.49
2019-06-26T17:27:44.925Z,21.49
2019-06-26T17:30:13.855Z,21.52
2019-06-26T17:32:42.594Z,21.58
2019-06-26T17:35:11.410Z,21.58
2019-06-26T17:37:40.024Z,21.57
2019-06-26T17:40:09.286Z,21.56
2019-06-26T17:42:39.867Z,21.54
2019-06-26T17:45:09.255Z,21.54
2019-06-26T17:47:37.957Z,21.52
2019-06-26T17:50:07.627Z,21.50
2019-06-26T17:52:38.446Z,21.45
2019-06-26T17:55:08.641Z,21.39
2019-06-26T17:57:37.299Z,21.33
2019-06-26T18:00:11.732Z,21.29
2019-06-26T18:02:40.350Z,21.28
2019-06-26T18:05:09.336Z,21.26
2019-06-26T18:07:38.697Z,21.22
2019-06-26T18:10:07.534Z,21.19
2019-06-26T18:12:36.388Z,21.19
2019-06-26T18:15:07.062Z,21.15
2019-06-26T18:17:35.932Z,21.08
2019-06-26T18:20:06.266Z,21.02
2019-06-26T18:22:34.825Z,20.95
2019-06-26T18:25:03.538Z,20.91
2019-06-26T18:27:32.300Z,20.83
2019-06-26T18:30:01.716Z,20.77
2019-06-26T18:32:34.094Z,20.75
2019-06-26T18:35:02.717Z,20.76
2019-06-26T18:37:31.269Z,20.77
2019-06-26T18:39:59.882Z,20.76
2019-06-26T18:42:28.529Z,20.72
2019-06-26T18:44:57.241Z,20.64
2019-06-26T18:47:26.006Z,20.62
2019-06-26T18:49:56.825Z,20.58
2019-06-26T18:52:25.535Z,20.53
2019-06-26T18:54:54.189Z,20.48
2019-06-26T18:57:23.462Z,20.44
2019-06-26T18:59:52.079Z,20.39
2019-06-26T19:02:21.106Z,20.38
2019-06-26T19:04:49.696Z,20.39
2019-06-26T19:10:09.358Z,20.35
2019-06-26T19:12:38.015Z,20.38
2019-06-26T19:15:07.598Z,20.38
2019-06-26T19:17:36.456Z,20.38
2019-06-26T19:20:08.316Z,20.38
2019-06-26T19:22:37.638Z,20.36
2019-06-26T19:25:08.121Z,20.32
2019-06-26T19:27:36.854Z,20.27
2019-06-26T19:30:08.220Z,20.21
2019-06-26T19:32:39.672Z,20.19
2019-06-26T19:35:18.376Z,20.18
2019-06-26T19:37:40.126Z,20.16
2019-06-26T19:40:09.162Z,20.13
2019-06-26T19:42:40.182Z,20.13
2019-06-26T19:45:10.794Z,20.11
2019-06-26T19:47:39.405Z,20.07
2019-06-26T19:50:09.289Z,20.03
2019-06-26T19:52:37.993Z,20.02
2019-06-26T19:55:06.896Z,20.00
2019-06-26T19:57:35.679Z,19.94
2019-06-26T20:00:10.843Z,19.90
2019-06-26T20:02:41.935Z,19.83
2019-06-26T20:05:11.992Z,19.78
2019-06-26T20:07:40.650Z,19.75
2019-06-26T20:10:10.379Z,19.71
2019-06-26T20:12:39.094Z,19.67
2019-06-26T20:15:08.105Z,19.66
2019-06-26T20:17:36.756Z,19.66
2019-06-26T20:20:08.798Z,19.64
2019-06-26T20:22:37.674Z,19.59
2019-06-26T20:25:08.619Z,19.52
2019-06-26T20:27:37.465Z,19.45
2019-06-26T20:30:09.904Z,19.41
2019-06-26T20:32:38.519Z,19.35
2019-06-26T20:35:07.387Z,19.26
2019-06-26T20:37:36.103Z,19.18
2019-06-26T20:40:09.368Z,19.12
2019-06-26T20:42:38.117Z,19.06
2019-06-26T20:45:07.593Z,19.00
2019-06-26T20:47:36.431Z,18.94
2019-06-26T20:50:07.155Z,18.93
2019-06-26T20:52:36.080Z,18.90
2019-06-26T20:55:06.806Z,18.88
2019-06-26T20:57:35.539Z,18.85
2019-06-26T21:00:08.906Z,18.81
2019-06-26T21:02:37.922Z,18.81
2019-06-26T21:05:07.419Z,18.82
2019-06-26T21:07:38.967Z,18.81
2019-06-26T21:10:08.039Z,18.78
2019-06-26T21:12:36.758Z,18.76
2019-06-26T21:15:07.415Z,18.76
2019-06-26T21:17:36.255Z,18.73
2019-06-26T21:20:05.995Z,18.70
2019-06-26T21:22:34.618Z,18.67
2019-06-26T21:25:17.621Z,18.66
2019-06-26T21:27:34.258Z,18.64
2019-06-26T21:30:02.861Z,18.61
2019-06-26T21:32:31.608Z,18.58
2019-06-26T21:35:00.286Z,18.56
2019-06-26T21:37:28.830Z,18.53
2019-06-26T21:39:58.038Z,18.51
2019-06-26T21:42:26.750Z,18.49
2019-06-26T21:44:55.331Z,18.44
2019-06-26T21:47:24.054Z,18.41
2019-06-26T21:49:54.861Z,18.39
2019-06-26T21:52:23.572Z,18.40
2019-06-26T21:54:52.282Z,18.38
2019-06-26T21:57:20.946Z,18.33
2019-06-26T21:59:49.661Z,18.32
2019-06-26T22:02:18.272Z,18.28
2019-06-26T22:04:46.839Z,18.26
2019-06-26T22:07:15.525Z,18.25
2019-06-26T22:09:44.171Z,18.24
2019-06-26T22:12:12.857Z,18.21
2019-06-26T22:14:41.609Z,18.20
2019-06-26T22:17:10.254Z,18.20
2019-06-26T22:19:38.902Z,18.23
2019-06-26T22:22:07.588Z,18.23
2019-06-26T22:24:36.339Z,18.21
2019-06-26T22:27:05.020Z,18.21
2019-06-26T22:29:33.659Z,18.21
2019-06-26T22:32:02.429Z,18.19
2019-06-26T22:34:31.161Z,18.17
2019-06-26T22:36:59.722Z,18.17
2019-06-26T22:39:28.375Z,18.18
2019-06-26T22:41:57.039Z,18.18
2019-06-26T22:44:25.535Z,18.20
2019-06-26T22:46:54.205Z,18.18
2019-06-26T22:49:22.783Z,18.17
2019-06-26T22:51:51.468Z,18.20
2019-06-26T22:54:20.142Z,18.20
2019-06-26T22:56:48.856Z,18.20
2019-06-26T22:59:18.862Z,18.20
2019-06-26T23:01:47.515Z,18.21
2019-06-26T23:04:16.135Z,18.23
2019-06-26T23:06:44.694Z,18.28
2019-06-26T23:09:13.228Z,18.28
2019-06-26T23:11:41.980Z,18.27
2019-06-26T23:14:10.537Z,18.28
2019-06-26T23:16:39.233Z,18.26
2019-06-26T23:19:07.889Z,18.22
2019-06-26T23:21:36.494Z,18.17
2019-06-26T23:24:05.220Z,18.16
2019-06-26T23:26:34.106Z,18.17
2019-06-26T23:29:02.696Z,18.14
2019-06-26T23:31:31.328Z,18.08
2019-06-26T23:33:59.981Z,18.07
2019-06-26T23:36:28.619Z,18.07
2019-06-26T23:38:57.438Z,18.04
2019-06-26T23:41:26.132Z,18.02
2019-06-26T23:43:57.539Z,17.98
2019-06-26T23:46:26.196Z,17.95
2019-06-26T23:48:54.793Z,17.93
2019-06-26T23:51:23.464Z,17.90
2019-06-26T23:53:52.080Z,17.87
2019-06-26T23:56:20.930Z,17.85
2019-06-26T23:58:49.393Z,17.82
